createdAt,value
2018-08-23T00:00:08.210Z,22.49
2018-08-23T00:01:22.313Z,22.53
2018-08-23T00:02:37.125Z,22.44
2018-08-23T00:03:51.751Z,22.43
2018-08-23T00:05:05.849Z,22.44
2018-08-23T00:06:19.924Z,22.37
2018-08-23T00:07:34.263Z,22.4
2018-08-23T00:08:48.650Z,22.28
2018-08-23T00:10:03.016Z,22.33
2018-08-23T00:11:17.060Z,22.36
2018-08-23T00:12:31.467Z,22.33
2018-08-23T00:13:45.707Z,22.33
2018-08-23T00:15:00.619Z,22.31
2018-08-23T00:16:14.454Z,22.26
2018-08-23T00:17:28.365Z,22.18
2018-08-23T00:18:42.671Z,22.22
2018-08-23T00:19:56.545Z,22.16
2018-08-23T00:21:11.380Z,22.08
2018-08-23T00:22:25.502Z,22.04
2018-08-23T00:23:39.774Z,22.12
2018-08-23T00:24:54.061Z,22.07
2018-08-23T00:26:07.633Z,22.07
2018-08-23T00:27:22.172Z,22.12
2018-08-23T00:28:36.049Z,22.08
2018-08-23T00:29:49.653Z,22.06
2018-08-23T00:31:03.497Z,21.94
2018-08-23T00:32:17.600Z,21.94
2018-08-23T00:33:46.705Z,21.99
2018-08-23T00:35:00.339Z,22.03
2018-08-23T00:36:14.641Z,22
2018-08-23T00:37:28.341Z,21.92
2018-08-23T00:38:42.393Z,21.91
2018-08-23T00:39:56.710Z,21.88
2018-08-23T00:41:10.974Z,21.77
2018-08-23T00:42:25.496Z,21.88
2018-08-23T00:43:39.294Z,21.81
2018-08-23T00:44:53.025Z,21.8
2018-08-23T00:46:07.352Z,21.8
2018-08-23T00:47:21.161Z,21.7
2018-08-23T00:48:35.235Z,21.72
2018-08-23T00:49:49.333Z,21.69
2018-08-23T00:51:03.903Z,21.56
2018-08-23T00:52:17.365Z,21.63
2018-08-23T00:53:31.463Z,21.51
2018-08-23T00:54:45.731Z,21.6
2018-08-23T00:55:59.373Z,21.56
2018-08-23T00:57:13.015Z,21.59
2018-08-23T00:58:27.074Z,21.63
2018-08-23T00:59:41.152Z,21.68
2018-08-23T01:00:54.549Z,21.65
2018-08-23T01:02:08.613Z,21.69
2018-08-23T01:03:22.708Z,21.62
2018-08-23T01:04:36.781Z,21.53
2018-08-23T01:05:50.500Z,21.56
2018-08-23T01:07:04.386Z,21.54
2018-08-23T01:08:18.684Z,21.53
2018-08-23T01:11:02.403Z,21.59
2018-08-23T01:12:16.734Z,21.56
2018-08-23T01:13:30.830Z,21.59
2018-08-23T01:14:44.936Z,21.58
2018-08-23T01:15:58.507Z,21.58
2018-08-23T01:17:12.533Z,21.6
2018-08-23T01:18:26.582Z,21.59
2018-08-23T01:19:40.961Z,21.5
2018-08-23T01:20:55.097Z,21.48
2018-08-23T01:22:09.157Z,21.51
2018-08-23T01:23:23.461Z,21.48
2018-08-23T01:24:36.688Z,21.44
2018-08-23T01:25:50.529Z,21.4
2018-08-23T01:27:04.907Z,21.54
2018-08-23T01:28:33.652Z,21.48
2018-08-23T01:29:47.992Z,21.5
2018-08-23T01:31:02.257Z,21.45
2018-08-23T01:32:16.115Z,21.47
2018-08-23T01:33:30.487Z,21.51
2018-08-23T01:34:44.642Z,21.5
2018-08-23T01:35:58.456Z,21.56
2018-08-23T01:37:12.934Z,21.45
2018-08-23T01:38:26.762Z,21.38
2018-08-23T01:39:40.933Z,21.41
2018-08-23T01:40:54.742Z,21.38
2018-08-23T01:42:08.803Z,21.38
2018-08-23T01:43:22.848Z,21.23
2018-08-23T01:44:36.960Z,21.23
2018-08-23T01:45:51.023Z,21.37
2018-08-23T01:47:04.842Z,21.32
2018-08-23T01:48:18.933Z,21.37
2018-08-23T01:49:33.114Z,21.35
2018-08-23T01:50:47.544Z,21.35
2018-08-23T01:52:01.613Z,21.26
2018-08-23T01:53:16.026Z,21.3
2018-08-23T01:54:30.148Z,21.25
2018-08-23T01:55:44.241Z,21.22
2018-08-23T01:56:58.795Z,21.29
2018-08-23T01:58:12.389Z,21.17
2018-08-23T01:59:26.456Z,21.17
2018-08-23T02:00:40.812Z,21.04
2018-08-23T02:01:54.722Z,21.13
2018-08-23T02:03:09.115Z,21.11
2018-08-23T02:04:23.168Z,21.08
2018-08-23T02:05:37.019Z,21.04
2018-08-23T02:06:51.300Z,21.13
2018-08-23T02:08:05.348Z,21.15
2018-08-23T02:09:19.641Z,21.1
2018-08-23T02:10:33.483Z,21.03
2018-08-23T02:11:47.994Z,21.04
2018-08-23T02:13:02.019Z,21.08
2018-08-23T02:14:15.866Z,21.11
2018-08-23T02:15:30.012Z,21.04
2018-08-23T02:16:44.106Z,21.04
2018-08-23T02:17:58.159Z,21.03
2018-08-23T02:19:12.299Z,21.01
2018-08-23T02:20:26.380Z,21.04
2018-08-23T02:21:40.448Z,20.89
2018-08-23T02:22:53.953Z,20.92
2018-08-23T02:24:08.363Z,20.95
2018-08-23T02:25:22.640Z,20.85
2018-08-23T02:26:36.502Z,20.83
2018-08-23T02:27:51.090Z,20.89
2018-08-23T02:29:04.924Z,20.9
2018-08-23T02:30:19.224Z,20.9
2018-08-23T02:31:33.041Z,20.96
2018-08-23T02:32:47.577Z,20.9
2018-08-23T02:34:01.708Z,20.89
2018-08-23T02:35:15.872Z,20.92
2018-08-23T02:36:30.156Z,20.82
2018-08-23T02:37:44.527Z,20.93
2018-08-23T02:38:58.569Z,20.83
2018-08-23T02:40:12.480Z,20.83
2018-08-23T02:41:26.784Z,20.88
2018-08-23T02:42:40.542Z,20.77
2018-08-23T02:43:54.615Z,20.85
2018-08-23T02:45:08.524Z,20.88
2018-08-23T02:46:22.855Z,20.8
2018-08-23T02:47:37.345Z,20.85
2018-08-23T02:48:51.617Z,20.88
2018-08-23T02:50:05.454Z,20.75
2018-08-23T02:51:19.480Z,20.75
2018-08-23T02:52:48.922Z,20.74
2018-08-23T02:54:02.763Z,20.64
2018-08-23T02:55:17.073Z,20.64
2018-08-23T02:56:31.799Z,20.58
2018-08-23T02:57:46.121Z,20.58
2018-08-23T02:59:00.412Z,20.64
2018-08-23T03:00:14.898Z,20.48
2018-08-23T03:01:29.447Z,20.48
2018-08-23T03:02:43.521Z,20.42
2018-08-23T03:03:58.246Z,20.4
2018-08-23T03:05:12.438Z,20.49
2018-08-23T03:06:26.721Z,20.53
2018-08-23T03:07:40.841Z,20.42
2018-08-23T03:08:55.477Z,20.42
2018-08-23T03:10:09.685Z,20.39
2018-08-23T03:11:23.780Z,20.5
2018-08-23T03:12:38.083Z,20.37
2018-08-23T03:13:51.912Z,20.39
2018-08-23T03:15:06.477Z,20.29
2018-08-23T03:16:20.543Z,20.36
2018-08-23T03:17:34.983Z,20.44
2018-08-23T03:18:49.610Z,20.29
2018-08-23T03:20:03.689Z,20.27
2018-08-23T03:21:17.531Z,20.37
2018-08-23T03:22:31.429Z,20.42
2018-08-23T03:23:45.495Z,20.58
2018-08-23T03:24:59.348Z,20.71
2018-08-23T03:26:12.999Z,20.78
2018-08-23T03:27:27.041Z,20.8
2018-08-23T03:28:41.114Z,20.89
2018-08-23T03:29:55.306Z,20.88
2018-08-23T03:31:09.840Z,20.95
2018-08-23T03:32:24.418Z,20.86
2018-08-23T03:33:39.108Z,20.9
2018-08-23T03:34:53.837Z,20.74
2018-08-23T03:36:07.889Z,20.77
2018-08-23T03:37:22.206Z,20.71
2018-08-23T03:38:36.405Z,20.74
2018-08-23T03:39:49.982Z,20.68
2018-08-23T03:41:04.272Z,20.78
2018-08-23T03:42:18.365Z,20.67
2018-08-23T03:43:32.666Z,20.6
2018-08-23T03:44:47.229Z,20.56
2018-08-23T03:46:00.829Z,20.6
2018-08-23T03:47:14.679Z,20.6
2018-08-23T03:48:28.997Z,20.49
2018-08-23T03:49:43.497Z,20.6
2018-08-23T03:50:57.307Z,20.49
2018-08-23T03:52:11.140Z,20.52
2018-08-23T03:53:25.689Z,20.48
2018-08-23T03:54:39.820Z,20.49
2018-08-23T03:55:53.626Z,20.5
2018-08-23T03:57:07.451Z,20.46
2018-08-23T03:58:21.111Z,20.5
2018-08-23T03:59:35.863Z,20.42
2018-08-23T04:00:49.659Z,20.34
2018-08-23T04:02:03.491Z,20.26
2018-08-23T04:03:17.917Z,20.24
2018-08-23T04:04:32.252Z,20.32
2018-08-23T04:05:46.613Z,20.26
2018-08-23T04:07:00.725Z,20.26
2018-08-23T04:08:14.540Z,20.17
2018-08-23T04:09:28.661Z,20.18
2018-08-23T04:10:42.943Z,20.14
2018-08-23T04:11:57.483Z,20.15
2018-08-23T04:13:11.075Z,20.17
2018-08-23T04:14:25.589Z,20.08
2018-08-23T04:15:40.090Z,20.18
2018-08-23T04:16:53.987Z,20.21
2018-08-23T04:18:08.070Z,20.11
2018-08-23T04:19:21.907Z,20.11
2018-08-23T04:20:36.197Z,20.04
2018-08-23T04:21:49.795Z,20.18
2018-08-23T04:23:03.734Z,20.15
2018-08-23T04:24:17.600Z,20.1
2018-08-23T04:25:31.905Z,20.21
2018-08-23T04:26:45.998Z,20.15
2018-08-23T04:28:00.306Z,20.12
2018-08-23T04:29:14.610Z,20.24
2018-08-23T04:30:29.485Z,20.12
2018-08-23T04:31:43.846Z,20.26
2018-08-23T04:32:57.522Z,20.26
2018-08-23T04:34:12.104Z,20.29
2018-08-23T04:35:25.895Z,20.29
2018-08-23T04:36:40.212Z,20.26
2018-08-23T04:37:54.251Z,20.24
2018-08-23T04:39:08.078Z,20.26
2018-08-23T04:40:22.365Z,20.24
2018-08-23T04:41:36.929Z,20.42
2018-08-23T04:42:51.242Z,20.44
2018-08-23T04:44:05.474Z,20.39
2018-08-23T04:45:19.062Z,20.52
2018-08-23T04:46:33.716Z,20.49
2018-08-23T04:47:47.775Z,20.49
2018-08-23T04:49:01.857Z,20.58
2018-08-23T04:50:15.717Z,20.5
2018-08-23T04:51:30.070Z,20.52
2018-08-23T04:52:44.359Z,20.53
2018-08-23T04:53:58.496Z,20.52
2018-08-23T04:55:12.592Z,20.75
2018-08-23T04:56:26.906Z,21
2018-08-23T04:57:41.218Z,21.32
2018-08-23T04:58:54.595Z,21.74
2018-08-23T05:00:08.833Z,22.18
2018-08-23T05:01:23.448Z,22.23
2018-08-23T05:02:37.765Z,21.78
2018-08-23T05:03:51.672Z,21.58
2018-08-23T05:05:05.886Z,21.58
2018-08-23T05:06:20.402Z,21.56
2018-08-23T05:07:35.054Z,21.53
2018-08-23T05:08:48.694Z,21.59
2018-08-23T05:10:02.678Z,21.58
2018-08-23T05:11:16.761Z,21.7
2018-08-23T05:12:30.833Z,21.7
2018-08-23T05:13:44.915Z,21.7
2018-08-23T05:14:59.527Z,21.75
2018-08-23T05:16:14.090Z,21.83
2018-08-23T05:17:28.218Z,21.91
2018-08-23T05:18:42.570Z,21.92
2018-08-23T05:19:56.688Z,22.07
2018-08-23T05:21:10.804Z,22.01
2018-08-23T05:22:24.896Z,22.07
2018-08-23T05:23:38.738Z,22.18
2018-08-23T05:24:52.571Z,22.15
2018-08-23T05:26:06.446Z,22.37
2018-08-23T05:27:20.306Z,22.25
2018-08-23T05:28:34.392Z,22.36
2018-08-23T05:29:47.827Z,22.38
2018-08-23T05:31:01.729Z,22.41
2018-08-23T05:32:16.025Z,22.44
2018-08-23T05:33:30.101Z,22.41
2018-08-23T05:34:44.044Z,22.47
2018-08-23T05:35:58.603Z,22.65
2018-08-23T05:37:12.658Z,22.71
2018-08-23T05:38:26.779Z,22.71
2018-08-23T05:39:41.075Z,22.7
2018-08-23T05:40:55.167Z,22.71
2018-08-23T05:42:09.134Z,22.77
2018-08-23T05:43:23.311Z,22.81
2018-08-23T05:44:37.646Z,22.77
2018-08-23T05:45:51.963Z,22.67
2018-08-23T05:47:06.036Z,22.61
2018-08-23T05:48:20.096Z,22.68
2018-08-23T05:49:34.442Z,22.78
2018-08-23T05:50:48.758Z,22.61
2018-08-23T05:52:02.837Z,22.73
2018-08-23T05:53:17.372Z,22.73
2018-08-23T05:54:31.430Z,22.63
2018-08-23T05:55:45.253Z,22.73
2018-08-23T05:56:59.351Z,22.86
2018-08-23T05:58:13.433Z,22.99
2018-08-23T05:59:27.521Z,22.99
2018-08-23T06:00:41.119Z,23.01
2018-08-23T06:01:55.235Z,23.1
2018-08-23T06:03:10.067Z,23.25
2018-08-23T06:04:23.768Z,23.2
2018-08-23T06:05:37.906Z,23.29
2018-08-23T06:06:51.759Z,23.25
2018-08-23T06:08:06.135Z,23.28
2018-08-23T06:09:20.894Z,23.28
2018-08-23T06:10:35.571Z,23.34
2018-08-23T06:11:49.904Z,23.52
2018-08-23T06:13:04.077Z,23.54
2018-08-23T06:14:18.891Z,23.62
2018-08-23T06:15:33.342Z,23.69
2018-08-23T06:16:46.817Z,23.73
2018-08-23T06:18:00.265Z,23.74
2018-08-23T06:19:13.895Z,23.88
2018-08-23T06:20:28.200Z,23.79
2018-08-23T06:21:42.311Z,23.81
2018-08-23T06:22:56.612Z,23.85
2018-08-23T06:24:10.780Z,23.89
2018-08-23T06:25:25.085Z,24
2018-08-23T06:26:39.653Z,23.95
2018-08-23T06:27:54.251Z,23.92
2018-08-23T06:29:07.921Z,23.84
2018-08-23T06:30:22.016Z,23.92
2018-08-23T06:31:36.277Z,23.94
2018-08-23T06:32:50.508Z,24.01
2018-08-23T06:34:05.424Z,24.03
2018-08-23T06:35:19.975Z,24.07
2018-08-23T06:36:34.378Z,24.16
2018-08-23T06:37:48.959Z,24.22
2018-08-23T06:39:03.176Z,24.21
2018-08-23T06:40:17.743Z,24.29
2018-08-23T06:41:31.401Z,24.38
2018-08-23T06:42:45.711Z,24.4
2018-08-23T06:44:00.290Z,24.48
2018-08-23T06:45:29.188Z,24.44
2018-08-23T06:46:44.362Z,24.59
2018-08-23T06:47:58.959Z,24.68
2018-08-23T06:49:13.508Z,24.69
2018-08-23T06:50:27.400Z,24.69
2018-08-23T06:51:41.764Z,24.81
2018-08-23T06:52:56.384Z,24.85
2018-08-23T06:54:10.518Z,24.86
2018-08-23T06:55:24.370Z,24.86
2018-08-23T06:56:38.450Z,24.79
2018-08-23T06:57:52.789Z,24.82
2018-08-23T06:59:07.690Z,24.88
2018-08-23T07:00:22.780Z,24.96
2018-08-23T07:01:36.912Z,25
2018-08-23T07:02:51.282Z,24.99
2018-08-23T07:04:05.402Z,25.18
2018-08-23T07:05:19.725Z,25.16
2018-08-23T07:06:34.219Z,25.24
2018-08-23T07:07:48.681Z,25.31
2018-08-23T07:09:02.761Z,25.26
2018-08-23T07:10:17.325Z,25.34
2018-08-23T07:11:32.114Z,25.33
2018-08-23T07:12:46.030Z,25.44
2018-08-23T07:14:00.690Z,25.4
2018-08-23T07:15:15.067Z,25.51
2018-08-23T07:16:28.916Z,25.59
2018-08-23T07:17:43.782Z,25.54
2018-08-23T07:18:58.186Z,25.62
2018-08-23T07:20:12.303Z,25.66
2018-08-23T07:21:26.341Z,25.62
2018-08-23T07:22:41.045Z,25.73
2018-08-23T07:23:55.777Z,25.74
2018-08-23T07:25:09.892Z,25.85
2018-08-23T07:26:23.941Z,25.98
2018-08-23T07:27:38.497Z,25.96
2018-08-23T07:28:52.810Z,25.88
2018-08-23T07:30:07.363Z,26.06
2018-08-23T07:31:21.616Z,26.13
2018-08-23T07:32:35.994Z,26.23
2018-08-23T07:33:50.092Z,26.19
2018-08-23T07:35:04.221Z,26.23
2018-08-23T07:36:18.684Z,26.26
2018-08-23T07:37:32.761Z,26.31
2018-08-23T07:38:47.104Z,26.42
2018-08-23T07:40:01.834Z,26.44
2018-08-23T07:41:15.760Z,26.48
2018-08-23T07:42:30.455Z,26.51
2018-08-23T07:43:44.600Z,26.48
2018-08-23T07:44:58.766Z,26.52
2018-08-23T07:46:13.345Z,26.52
2018-08-23T07:47:27.693Z,26.51
2018-08-23T07:48:43.054Z,26.53
2018-08-23T07:49:57.234Z,26.59
2018-08-23T07:51:11.076Z,26.64
2018-08-23T07:52:25.102Z,26.73
2018-08-23T07:53:39.668Z,26.78
2018-08-23T07:54:54.241Z,26.64
2018-08-23T07:56:08.950Z,26.66
2018-08-23T07:57:23.033Z,26.73
2018-08-23T07:58:37.357Z,26.76
2018-08-23T07:59:52.232Z,26.83
2018-08-23T08:01:06.739Z,27
2018-08-23T08:02:21.048Z,27.13
2018-08-23T08:03:34.444Z,27.26
2018-08-23T08:04:48.813Z,27.33
2018-08-23T08:06:02.698Z,27.44
2018-08-23T08:07:17.355Z,27.64
2018-08-23T08:08:31.777Z,27.76
2018-08-23T08:09:46.393Z,27.71
2018-08-23T08:11:00.080Z,27.78
2018-08-23T08:12:14.025Z,27.76
2018-08-23T08:13:28.229Z,27.71
2018-08-23T08:14:42.387Z,27.71
2018-08-23T08:15:56.520Z,27.85
2018-08-23T08:17:10.137Z,27.71
2018-08-23T08:18:24.776Z,27.9
2018-08-23T08:19:39.202Z,27.85
2018-08-23T08:20:53.737Z,27.88
2018-08-23T08:22:07.363Z,27.94
2018-08-23T08:23:21.715Z,27.91
2018-08-23T08:24:35.816Z,27.98
2018-08-23T08:25:50.209Z,28.04
2018-08-23T08:27:04.636Z,27.98
2018-08-23T08:28:18.863Z,27.95
2018-08-23T08:29:32.822Z,27.95
2018-08-23T08:30:46.469Z,27.98
2018-08-23T08:32:01.286Z,27.95
2018-08-23T08:33:15.549Z,27.97
2018-08-23T08:34:30.449Z,27.97
2018-08-23T08:35:44.562Z,28.03
2018-08-23T08:36:58.190Z,28.08
2018-08-23T08:38:12.513Z,28.19
2018-08-23T08:39:26.734Z,28.12
2018-08-23T08:40:41.129Z,28.23
2018-08-23T08:41:55.408Z,28.2
2018-08-23T08:43:10.587Z,28.2
2018-08-23T08:44:24.918Z,28.15
2018-08-23T08:45:38.858Z,28.15
2018-08-23T08:46:52.951Z,28.1
2018-08-23T08:48:06.816Z,28.19
2018-08-23T08:49:21.116Z,28.25
2018-08-23T08:50:35.641Z,28.25
2018-08-23T08:51:49.655Z,28.35
2018-08-23T08:53:03.534Z,28.43
2018-08-23T08:54:18.092Z,28.37
2018-08-23T08:55:31.988Z,28.38
2018-08-23T08:56:46.896Z,28.52
2018-08-23T08:58:01.509Z,28.53
2018-08-23T08:59:44.974Z,28.62
2018-08-23T09:00:59.316Z,28.62
2018-08-23T09:02:14.098Z,28.59
2018-08-23T09:03:28.233Z,28.65
2018-08-23T09:04:57.898Z,28.67
2018-08-23T09:06:12.028Z,28.6
2018-08-23T09:07:25.928Z,28.77
2018-08-23T09:08:40.038Z,28.71
2018-08-23T09:09:54.878Z,28.65
2018-08-23T09:11:08.870Z,28.68
2018-08-23T09:12:23.259Z,28.7
2018-08-23T09:13:37.658Z,28.68
2018-08-23T09:15:06.439Z,28.84
2018-08-23T09:16:20.730Z,28.9
2018-08-23T09:17:34.698Z,28.9
2018-08-23T09:18:48.319Z,29.07
2018-08-23T09:20:02.630Z,29.09
2018-08-23T09:21:16.749Z,29.09
2018-08-23T09:22:30.362Z,29.18
2018-08-23T09:23:44.727Z,29.28
2018-08-23T09:24:58.673Z,29.3
2018-08-23T09:26:13.330Z,29.35
2018-08-23T09:27:27.196Z,29.42
2018-08-23T09:28:41.377Z,29.34
2018-08-23T09:29:55.495Z,29.39
2018-08-23T09:31:09.655Z,29.55
2018-08-23T09:32:23.635Z,29.55
2018-08-23T09:33:38.000Z,29.57
2018-08-23T09:34:52.522Z,29.55
2018-08-23T09:36:07.020Z,29.5
2018-08-23T09:37:20.639Z,29.37
2018-08-23T09:38:35.193Z,29.35
2018-08-23T09:39:49.327Z,29.34
2018-08-23T09:41:02.989Z,29.25
2018-08-23T09:42:17.634Z,29.25
2018-08-23T09:43:32.264Z,29.15
2018-08-23T09:44:46.924Z,29.21
2018-08-23T09:46:00.808Z,29.31
2018-08-23T09:47:15.151Z,29.62
2018-08-23T09:48:29.433Z,29.67
2018-08-23T09:49:43.610Z,29.94
2018-08-23T09:50:58.764Z,30.06
2018-08-23T09:52:13.473Z,30.2
2018-08-23T09:53:28.149Z,30.17
2018-08-23T09:54:42.095Z,30.03
2018-08-23T09:55:56.696Z,30.31
2018-08-23T09:57:11.630Z,30.38
2018-08-23T09:58:25.744Z,30.2
2018-08-23T09:59:40.427Z,30.21
2018-08-23T10:00:54.814Z,30.24
2018-08-23T10:02:08.918Z,30.02
2018-08-23T10:03:23.514Z,29.9
2018-08-23T10:04:38.058Z,30.11
2018-08-23T10:05:52.126Z,30.27
2018-08-23T10:07:06.224Z,30.39
2018-08-23T10:08:20.706Z,30.51
2018-08-23T10:09:35.032Z,30.63
2018-08-23T10:10:49.393Z,30.86
2018-08-23T10:12:03.547Z,30.89
2018-08-23T10:13:17.194Z,30.96
2018-08-23T10:14:31.270Z,30.88
2018-08-23T10:15:45.285Z,30.88
2018-08-23T10:16:59.748Z,30.96
2018-08-23T10:18:14.179Z,30.81
2018-08-23T10:19:28.499Z,30.48
2018-08-23T10:20:43.198Z,30.59
2018-08-23T10:21:57.535Z,30.52
2018-08-23T10:23:11.628Z,30.71
2018-08-23T10:24:25.272Z,30.98
2018-08-23T10:25:39.623Z,31.14
2018-08-23T10:26:54.031Z,31.29
2018-08-23T10:28:08.433Z,31.1
2018-08-23T10:29:22.092Z,31.1
2018-08-23T10:30:36.638Z,31.18
2018-08-23T10:31:50.750Z,31.18
2018-08-23T10:33:05.423Z,31.11
2018-08-23T10:34:19.814Z,31.2
2018-08-23T10:35:33.536Z,31.1
2018-08-23T10:36:47.534Z,31.14
2018-08-23T10:38:02.175Z,31.14
2018-08-23T10:39:16.551Z,31.1
2018-08-23T10:40:30.805Z,31.25
2018-08-23T10:41:45.289Z,31.11
2018-08-23T10:43:14.078Z,31.02
2018-08-23T10:44:28.509Z,31.05
2018-08-23T10:45:43.139Z,31.02
2018-08-23T10:46:57.788Z,30.98
2018-08-23T10:48:12.133Z,31.05
2018-08-23T10:49:26.434Z,31
2018-08-23T10:50:41.250Z,30.89
2018-08-23T10:51:54.960Z,30.77
2018-08-23T10:53:08.128Z,30.88
2018-08-23T10:54:36.900Z,30.95
2018-08-23T10:55:51.292Z,31.05
2018-08-23T10:57:05.605Z,31.1
2018-08-23T10:58:19.550Z,31.11
2018-08-23T10:59:32.949Z,31.22
2018-08-23T11:01:02.016Z,31.26
2018-08-23T11:02:16.134Z,31.2
2018-08-23T11:03:30.630Z,31.15
2018-08-23T11:04:45.370Z,31.15
2018-08-23T11:05:59.331Z,31.29
2018-08-23T11:07:13.680Z,31.44
2018-08-23T11:08:28.271Z,31.36
2018-08-23T11:09:42.772Z,31.08
2018-08-23T11:10:56.578Z,31.17
2018-08-23T11:12:11.047Z,31.07
2018-08-23T11:13:25.507Z,30.77
2018-08-23T11:14:39.360Z,30.88
2018-08-23T11:15:54.134Z,30.77
2018-08-23T11:17:09.392Z,30.96
2018-08-23T11:18:23.564Z,30.92
2018-08-23T11:19:37.471Z,30.92
2018-08-23T11:21:06.695Z,30.93
2018-08-23T11:22:21.409Z,30.93
2018-08-23T11:23:35.569Z,30.98
2018-08-23T11:24:49.671Z,30.93
2018-08-23T11:26:03.909Z,30.83
2018-08-23T11:27:18.035Z,30.91
2018-08-23T11:28:32.229Z,30.89
2018-08-23T11:29:47.226Z,30.91
2018-08-23T11:31:01.016Z,30.95
2018-08-23T11:32:15.390Z,30.99
2018-08-23T11:33:29.796Z,30.96
2018-08-23T11:34:44.241Z,31.04
2018-08-23T11:35:58.122Z,30.96
2018-08-23T11:37:12.362Z,30.99
2018-08-23T11:38:27.010Z,31.05
2018-08-23T11:39:41.093Z,31
2018-08-23T11:40:55.504Z,30.98
2018-08-23T11:42:09.177Z,30.99
2018-08-23T11:43:23.626Z,30.81
2018-08-23T11:44:37.536Z,31.02
2018-08-23T11:45:52.248Z,31.02
2018-08-23T11:47:07.159Z,31.07
2018-08-23T11:48:21.576Z,31.02
2018-08-23T11:49:35.307Z,30.99
2018-08-23T11:50:49.167Z,31.1
2018-08-23T11:52:03.319Z,31.04
2018-08-23T11:53:18.127Z,31.11
2018-08-23T11:54:32.356Z,31.13
2018-08-23T11:55:46.293Z,31.23
2018-08-23T11:56:59.997Z,31.32
2018-08-23T11:58:14.484Z,31.25
2018-08-23T11:59:29.428Z,31.11
2018-08-23T12:00:58.406Z,31.23
2018-08-23T12:02:12.609Z,31.08
2018-08-23T12:03:26.276Z,31.13
2018-08-23T12:04:40.315Z,31.13
2018-08-23T12:05:54.432Z,31.2
2018-08-23T12:07:08.844Z,31.15
2018-08-23T12:08:22.949Z,31.15
2018-08-23T12:09:36.597Z,31.13
2018-08-23T12:10:50.947Z,31.1
2018-08-23T12:12:05.179Z,31.1
2018-08-23T12:13:19.618Z,31.15
2018-08-23T12:14:39.620Z,31.22
2018-08-23T12:15:53.369Z,31.32
2018-08-23T12:17:07.450Z,31.26
2018-08-23T12:18:22.075Z,31.23
2018-08-23T12:19:36.823Z,31.23
2018-08-23T12:20:50.887Z,31.15
2018-08-23T12:22:05.395Z,31.25
2018-08-23T12:23:19.673Z,31.28
2018-08-23T12:24:34.411Z,31.25
2018-08-23T12:25:48.580Z,31.26
2018-08-23T12:27:03.266Z,31.28
2018-08-23T12:28:17.385Z,31.28
2018-08-23T12:29:31.834Z,31.33
2018-08-23T12:30:46.613Z,31.32
2018-08-23T12:32:00.932Z,31.37
2018-08-23T12:33:15.126Z,31.41
2018-08-23T12:34:29.064Z,31.52
2018-08-23T12:35:43.191Z,31.47
2018-08-23T12:36:58.328Z,31.44
2018-08-23T12:38:12.472Z,31.47
2018-08-23T12:39:26.804Z,31.55
2018-08-23T12:40:40.967Z,31.55
2018-08-23T12:41:54.870Z,31.36
2018-08-23T12:43:09.902Z,31.39
2018-08-23T12:44:24.410Z,31.51
2018-08-23T12:45:39.074Z,31.41
2018-08-23T12:46:53.164Z,31.54
2018-08-23T12:48:07.355Z,31.42
2018-08-23T12:49:22.294Z,31.42
2018-08-23T12:50:37.266Z,31.55
2018-08-23T12:51:51.939Z,31.54
2018-08-23T12:53:21.600Z,31.6
2018-08-23T12:54:36.125Z,31.45
2018-08-23T12:55:50.459Z,31.47
2018-08-23T12:57:04.893Z,31.62
2018-08-23T12:58:19.276Z,31.51
2018-08-23T12:59:36.222Z,31.48
2018-08-23T13:00:50.659Z,31.51
2018-08-23T13:02:05.280Z,31.47
2018-08-23T13:03:19.883Z,31.51
2018-08-23T13:04:34.250Z,31.6
2018-08-23T13:05:48.862Z,31.67
2018-08-23T13:07:03.846Z,31.66
2018-08-23T13:08:17.993Z,31.57
2018-08-23T13:09:32.627Z,31.66
2018-08-23T13:10:46.840Z,31.69
2018-08-23T13:12:00.739Z,31.78
2018-08-23T13:13:15.339Z,31.92
2018-08-23T13:14:29.703Z,31.95
2018-08-23T13:15:43.383Z,31.93
2018-08-23T13:16:57.284Z,31.9
2018-08-23T13:18:11.876Z,32.01
2018-08-23T13:19:26.712Z,31.89
2018-08-23T13:20:41.482Z,31.93
2018-08-23T13:21:55.552Z,31.9
2018-08-23T13:23:09.628Z,31.89
2018-08-23T13:24:24.195Z,31.89
2018-08-23T13:25:38.817Z,31.86
2018-08-23T13:26:53.090Z,31.78
2018-08-23T13:28:07.206Z,31.87
2018-08-23T13:29:21.834Z,31.79
2018-08-23T13:30:35.546Z,31.72
2018-08-23T13:31:49.763Z,31.82
2018-08-23T13:33:03.831Z,31.82
2018-08-23T13:34:17.725Z,31.82
2018-08-23T13:35:32.053Z,31.9
2018-08-23T13:36:46.484Z,31.95
2018-08-23T13:38:01.655Z,31.97
2018-08-23T13:39:15.724Z,32.08
2018-08-23T13:40:30.085Z,32.07
2018-08-23T13:41:44.033Z,31.97
2018-08-23T13:42:57.807Z,32
2018-08-23T13:44:12.300Z,32.11
2018-08-23T13:45:26.810Z,32.08
2018-08-23T13:46:40.789Z,32.12
2018-08-23T13:47:54.997Z,32.16
2018-08-23T13:49:09.433Z,32.17
2018-08-23T13:50:23.412Z,32.11
2018-08-23T13:51:36.874Z,32.09
2018-08-23T13:52:51.641Z,32.08
2018-08-23T13:54:06.392Z,32.15
2018-08-23T13:55:20.879Z,32.22
2018-08-23T13:56:35.302Z,32.22
2018-08-23T13:57:49.466Z,32.26
2018-08-23T13:59:03.461Z,32.26
2018-08-23T14:00:17.476Z,32.24
2018-08-23T14:01:31.951Z,32.24
2018-08-23T14:02:47.227Z,32.22
2018-08-23T14:04:01.638Z,32.12
2018-08-23T14:05:15.589Z,32.15
2018-08-23T14:06:30.075Z,32.11
2018-08-23T14:07:44.473Z,32.26
2018-08-23T14:08:59.157Z,32.27
2018-08-23T14:10:13.523Z,32.23
2018-08-23T14:11:27.680Z,32.17
2018-08-23T14:12:41.949Z,32.08
2018-08-23T14:13:56.449Z,32.17
2018-08-23T14:15:10.698Z,32.15
2018-08-23T14:16:24.198Z,32.11
2018-08-23T14:17:38.355Z,32.12
2018-08-23T14:18:52.514Z,32.12
2018-08-23T14:20:06.415Z,32.11
2018-08-23T14:21:20.804Z,32.12
2018-08-23T14:22:35.177Z,32.3
2018-08-23T14:23:49.350Z,32.23
2018-08-23T14:25:03.696Z,32.35
2018-08-23T14:26:18.014Z,32.29
2018-08-23T14:27:32.829Z,32.38
2018-08-23T14:28:46.623Z,32.39
2018-08-23T14:30:00.733Z,32.42
2018-08-23T14:31:14.420Z,32.37
2018-08-23T14:32:28.772Z,32.44
2018-08-23T14:33:42.833Z,32.37
2018-08-23T14:34:57.131Z,32.35
2018-08-23T14:36:11.446Z,32.38
2018-08-23T14:37:25.823Z,32.44
2018-08-23T14:38:39.943Z,32.45
2018-08-23T14:39:54.720Z,32.37
2018-08-23T14:41:09.229Z,32.37
2018-08-23T14:42:22.858Z,32.2
2018-08-23T14:43:37.389Z,32.23
2018-08-23T14:44:51.270Z,32.34
2018-08-23T14:46:05.688Z,32.26
2018-08-23T14:47:19.798Z,32.27
2018-08-23T14:48:34.018Z,32.24
2018-08-23T14:49:47.630Z,32.17
2018-08-23T14:51:01.919Z,32.22
2018-08-23T14:52:16.405Z,32.22
2018-08-23T14:53:31.031Z,32.19
2018-08-23T14:54:45.373Z,32.27
2018-08-23T14:55:59.991Z,32.23
2018-08-23T14:57:14.091Z,32.23
2018-08-23T14:58:28.324Z,32.38
2018-08-23T14:59:42.699Z,32.23
2018-08-23T15:00:57.313Z,32.37
2018-08-23T15:02:12.085Z,32.24
2018-08-23T15:03:25.824Z,32.24
2018-08-23T15:04:40.403Z,32.23
2018-08-23T15:05:54.847Z,32.31
2018-08-23T15:07:08.701Z,32.37
2018-08-23T15:08:23.287Z,32.41
2018-08-23T15:09:52.147Z,32.27
2018-08-23T15:11:06.736Z,32.26
2018-08-23T15:12:20.811Z,32.34
2018-08-23T15:13:34.919Z,32.22
2018-08-23T15:14:49.228Z,32.23
2018-08-23T15:16:03.378Z,32.24
2018-08-23T15:17:17.826Z,32.24
2018-08-23T15:18:31.932Z,32.26
2018-08-23T15:19:46.279Z,32.17
2018-08-23T15:21:00.278Z,32.15
2018-08-23T15:22:14.880Z,32.19
2018-08-23T15:23:28.984Z,32.3
2018-08-23T15:24:42.942Z,32.26
2018-08-23T15:25:56.922Z,32.35
2018-08-23T15:27:12.424Z,32.39
2018-08-23T15:28:27.096Z,32.37
2018-08-23T15:29:41.481Z,32.29
2018-08-23T15:30:55.796Z,32.24
2018-08-23T15:32:09.419Z,32.26
2018-08-23T15:33:23.773Z,32.3
2018-08-23T15:34:37.665Z,32.29
2018-08-23T15:35:51.686Z,32.27
2018-08-23T15:37:06.059Z,32.16
2018-08-23T15:38:20.193Z,32.37
2018-08-23T15:39:34.856Z,32.38
2018-08-23T15:40:48.883Z,32.41
2018-08-23T15:42:02.664Z,32.38
2018-08-23T15:43:17.300Z,32.34
2018-08-23T15:44:31.717Z,32.41
2018-08-23T15:45:45.657Z,32.34
2018-08-23T15:47:00.062Z,32.42
2018-08-23T15:48:14.210Z,32.54
2018-08-23T15:49:28.595Z,32.6
2018-08-23T15:50:42.780Z,32.54
2018-08-23T15:51:57.440Z,32.38
2018-08-23T15:53:11.611Z,32.38
2018-08-23T15:54:26.023Z,32.38
2018-08-23T15:55:41.428Z,32.48
2018-08-23T15:56:55.094Z,32.51
2018-08-23T15:58:09.229Z,32.53
2018-08-23T15:59:23.663Z,32.53
2018-08-23T16:00:38.001Z,32.42
2018-08-23T16:01:51.875Z,32.38
2018-08-23T16:03:05.970Z,32.44
2018-08-23T16:04:20.722Z,32.27